Whitecourt, Canada
Current Conditions -  °F | °C
As of 6:00 PM on Saturday 25 Oct 2014 (Local Time) from CYZU Reporting Station
Overcast Overcast  
Wind Chill: 30°   Ceiling: 8000
Heat Index: 37°   Visibility: 15mi
Dew Point: 27°   Wind: 12mph
Humidity: 65%   Direction: 100°E
Pressure: 29.61"   Gusts: 18mph
Location:  54.13°N, 115.67°W
Report Text: CYZU 260000Z 10010G16KT 15SM FEW040 BKN080 OVC140 03/M03 A2961 RMK SC2AC4AC2 SLP057
Loading
Personal Weather Stations






























Interactive Weather Map
Tropical Storm Tracking
New forecast layout! Learn more

10-Day Weather Forecast

Advertisements
Track Severe Weather on mobile